Time;durP1;ratioP1;P1;durP2;ratioP2;P2;SDS_P1;SDS_P2;PMS_P1;PMS_P2;Temp;Humidity;BMP_temperature;BMP_pressure;BME280_temperature;BME280_humidity;BME280_pressure;Samples;Min_cycle;Max_cycle;Signal;HPM_P1;HPM_P2
2023/07/12 00:01:29;;;;;;;11.20;9.90;;;24.20;78.80;;;24.36;55.52;99846.28;5028795;28;20638;-75
2023/07/12 00:03:57;;;;;;;12.10;10.23;;;24.20;79.00;;;24.34;56.00;99842.19;5029309;28;20213;-75
2023/07/12 00:06:37;;;;;;;14.07;10.13;;;24.20;79.60;;;24.37;56.19;99837.00;5028856;28;20207;-75
2023/07/12 00:09:13;;;;;;;11.35;10.15;;;24.20;79.80;;;24.26;57.13;99826.31;5028841;28;20588;-76
2023/07/12 00:11:42;;;;;;;11.98;9.93;;;24.10;80.60;;;24.11;57.22;99827.09;5028940;28;20222;-75
2023/07/12 00:14:10;;;;;;;16.67;10.55;;;23.90;80.90;;;24.04;57.42;99823.78;5029049;28;20310;-75
2023/07/12 00:16:41;;;;;;;10.93;9.85;;;23.80;81.50;;;24.00;57.43;99820.78;5028907;28;20206;-75
2023/07/12 00:19:14;;;;;;;11.82;10.45;;;23.80;81.70;;;24.04;57.08;99823.78;5029324;28;20276;-76
2023/07/12 00:21:42;;;;;;;14.00;10.03;;;23.80;81.50;;;23.98;57.00;99825.69;5028836;28;20223;-75
2023/07/12 00:24:11;;;;;;;11.02;9.57;;;23.80;81.60;;;24.00;57.61;99819.94;5028955;28;20282;-74
2023/07/12 00:26:40;;;;;;;11.32;10.10;;;23.80;81.90;;;23.96;57.25;99832.50;5029599;28;20207;-75
2023/07/12 00:29:10;;;;;;;11.67;10.30;;;23.70;81.80;;;23.91;57.69;99827.84;5033115;28;20328;-75
2023/07/12 00:31:39;;;;;;;11.13;10.00;;;23.70;82.00;;;23.92;57.48;99817.72;5032728;28;20766;-75
2023/07/12 00:34:07;;;;;;;12.90;10.07;;;23.70;82.10;;;23.85;57.98;99819.91;5032448;28;20253;-75
2023/07/12 00:36:36;;;;;;;11.10;9.77;;;23.60;82.40;;;23.84;57.88;99808.13;5023688;28;20675;-75
2023/07/12 00:39:07;;;;;;;14.77;10.18;;;23.60;82.60;;;23.85;57.83;99812.53;5013052;28;20306;-75
2023/07/12 00:42:04;;;;;;;11.27;10.07;;;23.60;82.80;;;23.91;57.45;99818.81;5012860;28;20257;-75
2023/07/12 00:44:37;;;;;;;10.63;9.53;;;23.70;82.50;;;23.86;57.59;99813.34;5012602;28;20270;-75
2023/07/12 00:47:06;;;;;;;13.30;9.98;;;23.60;82.10;;;23.85;57.77;99812.53;5012472;28;20211;-75
2023/07/12 00:49:34;;;;;;;11.13;9.65;;;23.70;82.60;;;23.84;57.97;99816.34;5012946;28;20246;-75
2023/07/12 00:52:12;;;;;;;11.47;9.53;;;23.60;82.90;;;23.82;57.77;99825.91;5012693;28;20251;-75
2023/07/12 00:54:54;;;;;;;14.17;10.00;;;23.70;82.70;;;23.79;57.98;99826.44;5012570;28;20234;-75
2023/07/12 00:57:26;;;;;;;11.30;9.87;;;23.60;82.80;;;23.70;58.38;99840.63;5012731;28;20298;-75
2023/07/12 01:00:00;;;;;;;10.90;9.70;;;23.50;83.50;;;23.60;58.98;99832.38;5012880;28;20203;-75
2023/07/12 01:02:29;;;;;;;12.03;9.63;;;23.50;83.90;;;23.53;58.82;99837.28;5026017;28;20228;-75
2023/07/12 01:05:03;;;;;;;12.15;9.20;;;23.40;83.90;;;23.37;59.67;99837.44;5031986;28;20203;-77
2023/07/12 01:07:34;;;;;;;11.17;9.93;;;23.30;84.90;;;23.23;59.91;99840.66;5032353;28;20238;-76
2023/07/12 01:10:02;;;;;;;15.13;9.50;;;23.20;85.30;;;23.32;59.93;99853.81;5032012;28;20571;-76
2023/07/12 01:12:32;;;;;;;11.60;9.70;;;23.20;85.50;;;23.35;59.73;99847.81;5032249;28;20262;-75
2023/07/12 01:15:01;;;;;;;11.30;9.43;;;23.30;85.60;;;23.42;59.89;99848.44;5031656;28;20230;-76
2023/07/12 01:17:30;;;;;;;12.73;9.13;;;23.40;85.50;;;23.46;59.70;99850.34;5032237;28;20211;-76
2023/07/12 01:19:58;;;;;;;10.10;9.10;;;23.40;85.20;;;23.44;60.10;99851.72;5032336;28;20203;-75
2023/07/12 01:22:27;;;;;;;9.83;8.23;;;23.40;85.80;;;23.37;60.60;99862.84;5031524;28;20231;-76
2023/07/12 01:24:56;;;;;;;13.47;9.03;;;23.40;86.30;;;23.29;61.08;99860.63;5032079;28;20302;-75
2023/07/12 01:27:25;;;;;;;9.67;8.50;;;23.30;86.80;;;23.34;61.04;99851.63;5031977;28;20245;-77
2023/07/12 01:29:55;;;;;;;11.37;9.10;;;23.40;87.20;;;23.29;61.21;99855.16;5031955;28;20296;-75
2023/07/12 01:32:24;;;;;;;10.30;8.80;;;23.30;87.50;;;23.27;61.22;99851.88;5031575;28;20258;-75
2023/07/12 01:34:52;;;;;;;9.67;8.67;;;23.30;87.30;;;23.24;60.91;99849.69;5031180;28;20322;-75
2023/07/12 01:37:20;;;;;;;11.20;8.17;;;23.30;87.20;;;23.29;60.81;99857.88;5023980;28;20203;-75
2023/07/12 01:39:50;;;;;;;8.90;8.00;;;23.30;86.90;;;23.31;60.51;99869.38;5011703;28;20294;-76
2023/07/12 01:42:18;;;;;;;11.67;8.50;;;23.40;86.70;;;23.35;60.34;99880.59;5012011;28;20267;-75
2023/07/12 01:44:46;;;;;;;12.13;8.23;;;23.40;86.60;;;23.41;60.55;99918.66;5011459;28;20310;-76
2023/07/12 01:47:14;;;;;;;10.53;8.53;;;23.50;87.00;;;23.40;60.98;99933.34;5011836;28;20243;-76
2023/07/12 01:49:42;;;;;;;11.23;7.73;;;23.50;87.40;;;23.30;61.27;99900.50;5011430;28;20257;-77
2023/07/12 01:52:10;;;;;;;11.07;8.00;;;23.40;87.50;;;23.33;61.09;99910.06;5011701;28;20233;-75
2023/07/12 01:54:38;;;;;;;15.23;8.10;;;23.40;87.70;;;23.27;61.68;99922.88;5011202;28;20237;-76
2023/07/12 01:57:08;;;;;;;12.83;8.73;;;23.30;88.30;;;23.14;62.11;99935.09;5011557;28;20560;-75
2023/07/12 01:59:37;;;;;;;11.97;7.63;;;22.90;89.80;;;22.85;63.13;99946.56;5011547;28;20211;-76
2023/07/12 02:02:05;;;;;;;10.27;8.67;;;22.90;90.10;;;22.77;64.25;99938.88;5021214;28;20230;-75
2023/07/12 02:04:34;;;;;;;10.37;8.47;;;22.90;90.80;;;22.62;65.26;99940.34;5031129;28;20557;-75
2023/07/12 02:07:03;;;;;;;10.20;7.60;;;22.70;91.40;;;22.46;66.24;99938.56;5031059;28;20217;-75
2023/07/12 02:09:36;;;;;;;13.13;8.00;;;22.60;92.10;;;22.33;66.95;99944.38;5031275;28;20269;-76
2023/07/12 02:12:06;;;;;;;11.17;8.03;;;22.40;92.50;;;22.42;67.06;99959.22;5031198;28;20285;-75
2023/07/12 02:14:35;;;;;;;12.17;8.27;;;22.50;93.40;;;22.29;67.52;99959.63;5030650;28;20322;-75
2023/07/12 02:17:04;;;;;;;12.87;7.60;;;22.40;93.50;;;22.14;67.96;99967.63;5030803;28;20629;-75
2023/07/12 02:19:33;;;;;;;10.77;7.40;;;22.20;93.80;;;22.15;67.62;99980.19;5030702;28;20289;-75
2023/07/12 02:22:01;;;;;;;9.77;7.57;;;22.20;94.10;;;22.09;67.50;99975.75;5030590;28;20258;-75
2023/07/12 02:24:29;;;;;;;9.47;7.20;;;22.10;94.20;;;22.17;67.24;99978.03;5030371;28;20569;-76
2023/07/12 02:26:57;;;;;;;9.90;7.43;;;22.20;94.30;;;22.16;67.48;99992.72;5030553;28;20267;-75
2023/07/12 02:29:25;;;;;;;12.67;7.57;;;22.20;94.50;;;21.89;68.85;99984.44;5030823;28;20233;-75
2023/07/12 02:31:55;;;;;;;9.13;7.10;;;21.90;94.90;;;21.75;69.10;99980.44;5030746;28;20317;-76
2023/07/12 02:34:24;;;;;;;9.53;6.77;;;21.90;95.20;;;21.59;69.59;99978.56;5030847;28;20288;-76
2023/07/12 02:36:52;;;;;;;10.43;6.73;;;21.60;95.80;;;21.64;69.42;99984.91;5022347;28;20293;-76
2023/07/12 02:39:20;;;;;;;10.03;6.20;;;21.60;95.90;;;21.57;69.72;99999.81;5030889;28;20242;-75
2023/07/12 02:41:48;;;;;;;11.37;5.60;;;21.50;96.20;;;21.52;69.72;99989.66;5030258;28;20666;-75
2023/07/12 02:44:16;;;;;;;7.60;5.60;;;21.50;96.30;;;21.54;69.42;99992.94;5030323;28;20245;-76
2023/07/12 02:46:44;;;;;;;10.33;5.57;;;21.50;96.30;;;21.47;69.67;99996.94;5030029;28;20298;-76
2023/07/12 02:49:14;;;;;;;8.23;5.30;;;21.50;96.20;;;21.52;69.54;99989.66;5029740;28;20211;-75
2023/07/12 02:51:43;;;;;;;6.53;4.70;;;21.50;96.40;;;21.36;69.99;99987.78;5029725;28;20241;-76
2023/07/12 02:54:11;;;;;;;6.83;4.10;;;21.40;96.60;;;21.54;69.05;99990.22;5029582;28;20289;-76
2023/07/12 02:56:39;;;;;;;6.50;4.57;;;21.50;96.50;;;21.44;69.22;99995.50;5029923;28;20675;-76
2023/07/12 02:59:07;;;;;;;7.50;4.13;;;21.40;96.60;;;21.40;69.47;99999.84;5030362;28;20301;-76
2023/07/12 03:01:36;;;;;;;7.20;4.43;;;21.40;96.70;;;21.41;69.42;100001.47;5030001;28;20214;-75
2023/07/12 03:04:04;;;;;;;7.13;3.87;;;21.40;96.90;;;21.36;69.97;99993.22;5029778;28;20207;-75
2023/07/12 03:06:34;;;;;;;5.97;4.10;;;21.40;97.00;;;21.20;70.63;99988.59;5029640;28;20294;-76
2023/07/12 03:09:05;;;;;;;8.00;3.93;;;21.20;97.30;;;21.32;70.01;99996.69;5030165;28;20202;-75
2023/07/12 03:11:33;;;;;;;7.50;4.17;;;21.20;97.20;;;21.33;69.87;100003.78;5029739;28;20313;-76
2023/07/12 03:14:02;;;;;;;5.50;3.77;;;21.30;97.30;;;21.47;69.10;100011.34;5029456;28;20234;-76
2023/07/12 03:16:32;;;;;;;6.23;3.80;;;21.30;99.90;;;21.49;69.47;100020.13;5029615;28;20246;-75
2023/07/12 03:19:01;;;;;;;4.53;3.73;;;21.50;96.90;;;21.43;69.42;100026.56;5029683;28;20207;-76
2023/07/12 03:21:29;;;;;;;4.30;3.60;;;21.40;97.00;;;21.32;70.17;100034.81;5029700;28;20314;-76
2023/07/12 03:23:59;;;;;;;5.63;3.73;;;21.30;97.10;;;21.30;70.20;100024.19;5029786;28;20345;-76
2023/07/12 03:26:27;;;;;;;6.87;3.63;;;21.20;97.60;;;21.32;69.85;100019.28;5029836;28;20203;-76
2023/07/12 03:28:55;;;;;;;5.10;3.43;;;21.30;97.20;;;21.32;69.84;100023.91;5029615;28;20556;-76
2023/07/12 03:31:24;;;;;;;5.73;3.60;;;21.20;97.50;;;21.29;70.19;100019.78;5029392;28;20305;-77
2023/07/12 03:33:52;;;;;;;7.30;3.53;;;21.20;97.50;;;21.32;69.97;100022.03;5029348;28;20214;-75
2023/07/12 03:36:24;;;;;;;5.97;3.30;;;21.30;97.40;;;21.21;70.87;100022.91;5028011;28;20778;-75
2023/07/12 03:38:52;;;;;;;5.13;3.30;;;21.20;97.80;;;21.24;70.27;100016.97;5029402;28;20214;-76
2023/07/12 03:41:23;;;;;;;8.07;3.77;;;21.20;97.60;;;21.04;70.80;100022.03;5029514;28;20325;-76
2023/07/12 03:43:51;;;;;;;5.87;3.60;;;21.00;97.90;;;21.19;70.46;100014.19;5028677;28;20203;-75
2023/07/12 03:46:20;;;;;;;6.97;3.50;;;21.20;97.90;;;21.19;70.44;100022.34;5029040;28;20761;-75
2023/07/12 03:48:48;;;;;;;5.90;3.50;;;21.20;97.70;;;21.32;69.80;100034.81;5029070;28;20650;-76
2023/07/12 03:51:18;;;;;;;4.47;3.13;;;21.30;97.60;;;21.31;70.22;100039.41;5029000;28;20796;-75
2023/07/12 03:53:46;;;;;;;4.23;3.10;;;21.30;97.50;;;21.15;70.51;100040.25;5029239;28;20261;-75
2023/07/12 03:56:14;;;;;;;4.83;2.87;;;21.30;97.50;;;21.26;70.60;100055.69;5029112;28;20322;-76
2023/07/12 03:58:44;;;;;;;5.33;3.20;;;21.30;98.10;;;21.04;71.81;100071.03;5028775;28;20297;-76
2023/07/12 04:01:13;;;;;;;5.17;3.13;;;21.00;98.10;;;21.07;71.12;100062.38;5030310;28;20249;-76
2023/07/12 04:03:41;;;;;;;4.90;3.20;;;21.00;98.30;;;21.01;71.62;100077.81;5032957;28;20210;-76
2023/07/12 04:06:12;;;;;;;5.73;3.23;;;21.00;98.50;;;20.87;72.36;100087.31;5033953;28;20214;-76
2023/07/12 04:08:40;;;;;;;5.70;3.00;;;20.90;98.90;;;20.86;72.19;100107.44;5034537;28;20620;-76
2023/07/12 04:11:25;;;;;;;3.60;2.80;;;20.90;98.80;;;20.77;72.38;100102.63;5033265;28;20672;-76
2023/07/12 04:13:56;;;;;;;4.97;3.30;;;20.80;99.10;;;20.78;72.65;100121.44;5033059;28;20237;-75
2023/07/12 04:16:25;;;;;;;5.93;3.13;;;20.80;99.20;;;20.85;72.38;100121.28;5033275;28;20226;-75
2023/07/12 04:18:54;;;;;;;5.37;3.43;;;20.90;99.30;;;20.81;72.43;100123.69;5032958;28;20210;-76
2023/07/12 04:21:23;;;;;;;12.00;4.13;;;20.80;99.10;;;20.71;72.95;100123.47;5032767;28;20237;-76
2023/07/12 04:23:52;;;;;;;13.20;3.93;;;20.80;99.50;;;20.71;73.39;100132.47;5032915;28;20210;-75
2023/07/12 04:26:21;;;;;;;8.53;3.40;;;20.80;99.40;;;20.81;72.76;100133.72;5033099;28;20202;-76
2023/07/12 04:28:52;;;;;;;4.17;3.37;;;20.90;99.40;;;20.92;72.14;100138.31;5032997;28;20301;-76
2023/07/12 04:31:23;;;;;;;6.40;3.30;;;21.00;99.10;;;20.64;73.70;100142.66;5032589;28;20751;-75
2023/07/12 04:33:52;;;;;;;23.40;4.97;;;20.70;99.60;;;20.76;73.13;100139.88;5032535;28;20754;-76
2023/07/12 04:36:20;;;;;;;4.87;3.73;;;20.90;99.60;;;20.46;74.83;100167.28;5025050;28;20322;-76
2023/07/12 04:38:48;;;;;;;7.80;3.70;;;20.60;99.90;;;20.43;75.09;100183.22;5032715;28;20261;-76
2023/07/12 04:41:16;;;;;;;6.47;3.77;;;20.60;99.90;;;20.52;74.82;100185.34;5032760;28;20322;-76
2023/07/12 04:43:44;;;;;;;5.90;3.70;;;20.60;99.90;;;20.39;75.69;100199.19;5032268;28;20249;-75
2023/07/12 04:46:13;;;;;;;5.83;3.87;;;20.60;99.90;;;20.50;75.34;100195.66;5032371;28;20207;-76
2023/07/12 04:48:42;;;;;;;7.33;4.23;;;20.60;99.90;;;20.46;75.94;100194.47;5032097;28;20211;-75
2023/07/12 04:51:10;;;;;;;6.40;3.57;;;20.60;99.90;;;20.57;74.94;100180.03;5032431;28;20227;-76
2023/07/12 04:53:39;;;;;;;4.57;3.30;;;20.70;99.90;;;20.46;75.48;100178.16;5032300;28;20758;-76
2023/07/12 04:56:07;;;;;;;7.53;3.63;;;20.60;99.90;;;20.37;76.59;100185.03;5032505;28;20303;-76
2023/07/12 04:58:35;;;;;;;6.77;3.50;;;20.50;99.90;;;20.43;75.54;100184.06;5032390;28;20213;-75
2023/07/12 05:01:03;;;;;;;6.50;3.30;;;20.50;99.90;;;20.45;76.18;100187.38;5031917;28;20402;-76
2023/07/12 05:03:32;;;;;;;4.77;3.10;;;20.60;99.90;;;20.53;75.79;100173.41;5032368;28;20273;-76
2023/07/12 05:06:02;;;;;;;4.63;2.90;;;20.60;99.90;;;20.49;75.82;100172.22;5032172;28;20202;-76
2023/07/12 05:08:44;;;;;;;5.83;3.20;;;20.70;99.90;;;20.51;75.69;100186.44;5032989;28;20206;-76
2023/07/12 05:11:12;;;;;;;5.53;3.30;;;20.60;99.90;;;20.31;76.24;100196.81;5032986;28;20230;-76
2023/07/12 05:13:40;;;;;;;3.70;3.07;;;20.50;99.90;;;20.33;76.69;100205.59;5030878;28;20207;-76
2023/07/12 05:16:12;;;;;;;7.13;3.10;;;20.50;99.90;;;20.39;75.83;100215.50;5032065;28;20261;-76
2023/07/12 05:18:40;;;;;;;6.00;2.87;;;20.50;99.90;;;20.38;75.12;100222.00;5032334;28;20313;-75
2023/07/12 05:21:09;;;;;;;5.97;2.90;;;20.60;99.90;;;20.28;75.86;100229.91;5032698;28;20238;-76
2023/07/12 05:23:39;;;;;;;6.80;2.70;;;20.40;99.90;;;20.23;75.21;100221.63;5032989;28;20289;-76
2023/07/12 05:26:08;;;;;;;7.77;3.10;;;20.40;99.90;;;20.28;75.10;100219.03;5032702;28;20230;-75
2023/07/12 05:28:36;;;;;;;6.33;3.03;;;20.50;99.90;;;20.33;75.25;100235.50;5031891;28;20238;-76
2023/07/12 05:31:08;;;;;;;5.57;2.80;;;20.50;99.90;;;20.31;73.83;100240.31;5031940;28;20591;-75
2023/07/12 05:33:37;;;;;;;5.03;2.20;;;20.50;99.90;;;20.29;73.18;100230.75;5031462;28;20297;-77
2023/07/12 05:36:06;;;;;;;7.13;2.20;;;20.50;99.80;;;20.37;72.31;100233.13;5023863;28;20364;-75
2023/07/12 05:38:36;;;;;;;6.93;2.10;;;20.60;99.60;;;20.35;71.62;100236.06;5031636;28;20225;-76
2023/07/12 05:41:05;;;;;;;3.63;2.10;;;20.60;99.00;;;20.16;72.40;100239.94;5032821;28;20233;-75
2023/07/12 05:43:40;;;;;;;3.67;1.80;;;20.40;99.30;;;20.18;72.46;100216.06;5032816;28;20202;-75
2023/07/12 05:46:08;;;;;;;3.67;1.77;;;20.40;99.40;;;20.13;72.43;100232.25;5031699;28;20226;-75
2023/07/12 05:48:38;;;;;;;3.93;1.93;;;20.40;99.40;;;20.21;72.18;100234.63;5031801;28;20207;-76
2023/07/12 05:51:07;;;;;;;3.23;1.80;;;20.40;99.30;;;20.23;71.77;100240.66;5031257;28;20337;-75
2023/07/12 05:53:38;;;;;;;3.03;1.90;;;20.50;99.00;;;20.24;71.40;100245.84;5031480;28;20667;-75
2023/07/12 05:56:07;;;;;;;3.40;2.03;;;20.50;98.80;;;20.37;71.18;100247.56;5031467;28;20223;-77
2023/07/12 05:58:35;;;;;;;4.20;1.97;;;20.60;99.00;;;20.41;70.96;100246.00;5031677;28;20238;-76
2023/07/12 06:01:05;;;;;;;5.17;1.70;;;20.70;98.70;;;20.37;70.28;100233.97;5031288;28;20269;-76
2023/07/12 06:03:34;;;;;;;3.13;2.03;;;20.60;98.00;;;20.27;68.88;100201.09;5030912;28;20747;-75
2023/07/12 06:06:07;;;;;;;2.90;1.87;;;20.50;97.50;;;20.23;68.59;100222.47;5031408;28;20667;-75
2023/07/12 06:08:38;;;;;;;2.37;1.70;;;20.50;97.40;;;20.29;69.03;100230.75;5031385;28;20716;-76
2023/07/12 06:11:06;;;;;;;2.77;1.57;;;20.50;97.40;;;20.16;68.50;100248.94;5032113;28;20296;-75
2023/07/12 06:13:35;;;;;;;4.37;1.80;;;20.40;97.20;;;20.20;68.01;100244.69;5030855;28;20578;-76
2023/07/12 06:16:04;;;;;;;5.67;1.70;;;20.40;97.00;;;20.16;67.86;100257.09;5030923;28;20223;-75
2023/07/12 06:18:32;;;;;;;6.77;2.10;;;20.40;96.80;;;20.25;68.53;100273.84;5030276;28;20237;-76
2023/07/12 06:21:06;;;;;;;2.53;1.90;;;20.40;97.20;;;20.25;68.30;100265.69;5030990;28;20233;-76
2023/07/12 06:23:37;;;;;;;2.80;1.70;;;20.50;97.00;;;20.30;67.89;100262.31;5030906;28;20297;-76
2023/07/12 06:26:05;;;;;;;7.30;2.10;;;20.50;96.90;;;20.41;67.51;100251.44;5029715;28;20214;-76
2023/07/12 06:28:34;;;;;;;3.47;1.80;;;20.60;96.80;;;20.45;66.57;100252.63;5030420;28;20214;-76
2023/07/12 06:31:03;;;;;;;2.10;1.90;;;20.70;96.00;;;20.51;65.50;100248.97;5030238;28;20733;-76
2023/07/12 06:33:31;;;;;;;2.90;1.73;;;20.80;95.40;;;20.56;65.21;100232.75;5030668;28;20294;-76
2023/07/12 06:36:00;;;;;;;2.13;1.50;;;20.80;95.30;;;20.60;64.59;100233.94;5018956;28;20218;-75
2023/07/12 06:38:28;;;;;;;3.43;1.90;;;20.90;94.90;;;20.68;64.17;100240.94;5027141;28;20252;-76
2023/07/12 06:40:58;;;;;;;2.60;1.90;;;20.90;94.80;;;20.72;63.93;100240.19;5030162;28;20678;-76
2023/07/12 06:43:27;;;;;;;2.97;2.43;;;21.00;94.50;;;20.69;63.29;100237.13;5030185;28;20203;-75
2023/07/12 06:45:55;;;;;;;3.43;2.10;;;20.90;94.20;;;20.78;63.87;100234.88;5030617;28;20740;-76
2023/07/12 06:48:24;;;;;;;5.60;2.10;;;21.00;94.40;;;20.82;63.21;100241.50;5030231;28;20218;-75
2023/07/12 06:50:54;;;;;;;4.83;2.10;;;21.10;93.90;;;20.81;62.18;100234.41;5030411;28;20222;-76
2023/07/12 06:53:22;;;;;;;3.33;1.70;;;21.10;93.40;;;20.84;61.84;100228.47;5029908;28;20203;-75
2023/07/12 06:55:50;;;;;;;5.50;2.37;;;21.10;93.20;;;20.87;61.73;100233.44;5030227;28;20249;-77
2023/07/12 06:58:20;;;;;;;7.50;1.97;;;21.10;93.00;;;20.96;62.37;100256.50;5030082;28;20234;-76
2023/07/12 07:00:48;;;;;;;5.73;1.97;;;21.20;93.30;;;21.04;61.56;100264.28;5029765;28;20214;-75
2023/07/12 07:03:19;;;;;;;3.50;1.77;;;21.30;93.00;;;21.10;61.43;100260.63;5029514;28;20851;-76
2023/07/12 07:05:48;;;;;;;2.43;1.80;;;21.30;92.90;;;21.17;60.84;100264.03;5029918;28;20678;-75
2023/07/12 07:08:21;;;;;;;3.57;1.60;;;21.50;92.20;;;21.18;61.44;100262.97;5029707;28;20203;-75
2023/07/12 07:10:56;;;;;;;2.30;1.70;;;21.50;92.50;;;21.28;62.41;100267.78;5030049;28;20202;-76
2023/07/12 07:13:30;;;;;;;2.70;1.90;;;21.60;93.40;;;21.32;61.84;100264.34;5029831;28;20229;-75
2023/07/12 07:16:03;;;;;;;5.43;1.77;;;21.60;92.90;;;21.38;61.71;100263.38;5029815;28;20211;-75
2023/07/12 07:18:31;;;;;;;4.30;1.70;;;21.70;92.80;;;21.42;60.91;100264.56;5029397;28;20222;-75
2023/07/12 07:21:04;;;;;;;3.73;1.40;;;21.70;92.20;;;21.52;56.65;100274.81;5029834;28;20632;-75
2023/07/12 07:23:33;;;;;;;3.13;1.20;;;21.80;90.10;;;21.59;55.74;100280.94;5029260;28;20242;-75
2023/07/12 07:26:07;;;;;;;2.97;1.50;;;21.90;88.80;;;21.64;53.61;100281.84;5029756;28;20211;-75
2023/07/12 07:28:41;;;;;;;3.47;1.27;;;21.90;85.00;;;21.78;54.96;100293.31;5029840;28;20237;-76
2023/07/12 07:31:10;;;;;;;4.07;1.57;;;22.10;87.00;;;21.77;55.53;100299.00;5029533;28;20234;-75
2023/07/12 07:33:40;;;;;;;3.90;1.50;;;22.10;86.90;;;21.65;53.93;100291.69;5028830;28;20253;-75
2023/07/12 07:36:13;;;;;;;3.40;1.60;;;21.90;85.10;;;21.58;54.52;100299.19;5021401;28;20199;-75
2023/07/12 07:38:42;;;;;;;3.87;1.57;;;21.80;86.80;;;21.53;54.88;100299.09;5011584;28;20231;-75
2023/07/12 07:41:15;;;;;;;4.70;1.43;;;21.80;86.30;;;21.57;54.44;100300.28;5009548;28;20620;-77
2023/07/12 07:43:45;;;;;;;1.27;1.10;;;21.80;85.40;;;21.70;55.67;100305.44;5009139;28;20203;-75
2023/07/12 07:46:17;;;;;;;5.23;1.30;;;22.00;87.10;;;21.75;55.33;100305.50;5008412;28;20669;-77
2023/07/12 07:48:45;;;;;;;2.80;1.20;;;22.00;86.90;;;21.77;55.78;100309.91;5009791;28;20242;-75
2023/07/12 07:51:14;;;;;;;3.20;1.30;;;22.00;86.70;;;21.74;54.80;100312.06;5009736;28;20228;-75
2023/07/12 07:53:43;;;;;;;4.80;2.53;;;22.00;85.70;;;21.70;54.01;100321.78;5009471;28;20242;-76
2023/07/12 07:56:11;;;;;;;5.53;3.00;;;22.00;85.30;;;21.77;54.53;100326.25;5017887;28;20297;-76
2023/07/12 07:58:40;;;;;;;5.70;3.50;;;22.00;85.40;;;21.82;54.59;100316.25;5017304;28;20318;-76
2023/07/12 08:01:09;;;;;;;2.10;1.50;;;22.10;85.10;;;21.82;53.78;100320.88;5022835;28;20226;-76
2023/07/12 08:03:38;;;;;;;1.23;1.13;;;22.10;84.50;;;21.78;53.86;100327.91;5029011;28;20210;-76
2023/07/12 08:06:07;;;;;;;3.80;1.33;;;22.00;84.90;;;21.71;53.96;100322.63;5029419;28;20248;-76
2023/07/12 08:08:35;;;;;;;4.70;2.33;;;21.90;84.20;;;21.71;53.64;100328.84;5028938;28;20214;-75
2023/07/12 08:11:06;;;;;;;5.57;4.53;;;22.00;83.60;;;21.73;53.67;100339.53;5029181;28;20274;-76
2023/07/12 08:13:35;;;;;;;4.37;1.60;;;21.90;84.90;;;21.85;53.54;100336.78;5029038;28;20217;-76
2023/07/12 08:16:04;;;;;;;7.00;1.50;;;22.10;84.10;;;21.80;53.34;100331.22;5029087;28;20233;-75
2023/07/12 08:18:34;;;;;;;2.50;1.37;;;22.10;83.80;;;21.88;54.66;100336.28;5029077;28;20320;-76
2023/07/12 08:21:02;;;;;;;6.37;1.80;;;22.10;85.40;;;21.91;56.20;100342.09;5028926;28;20223;-76
2023/07/12 08:23:31;;;;;;;1.57;1.40;;;22.10;87.00;;;21.91;55.55;100346.72;5027731;28;20234;-75
2023/07/12 08:25:59;;;;;;;2.33;1.33;;;22.10;86.30;;;21.88;54.95;100349.91;5028908;28;20674;-76
2023/07/12 08:28:27;;;;;;;6.60;1.40;;;22.10;85.80;;;21.90;54.50;100353.25;5029235;28;20285;-76
2023/07/12 08:30:55;;;;;;;2.77;1.40;;;22.10;85.30;;;21.97;55.93;100359.38;5028885;28;20242;-76
2023/07/12 08:33:23;;;;;;;2.00;1.40;;;22.20;86.80;;;21.98;55.75;100355.59;5026594;28;20299;-76
2023/07/12 08:35:53;;;;;;;3.83;1.40;;;22.20;86.80;;;21.85;54.54;100366.75;5018797;28;20203;-75
2023/07/12 08:38:21;;;;;;;4.30;2.83;;;22.10;85.10;;;21.81;54.63;100363.69;5027839;28;20308;-76
2023/07/12 08:40:52;;;;;;;2.87;1.30;;;22.10;85.50;;;21.77;55.18;100376.13;5028835;28;20211;-76
2023/07/12 08:43:26;;;;;;;20.97;2.20;;;22.00;85.80;;;21.83;55.42;100371.59;5028390;28;20211;-76
2023/07/12 08:46:04;;;;;;;7.73;1.77;;;22.00;85.90;;;21.81;55.57;100390.09;5028834;28;20220;-76
2023/07/12 08:48:36;;;;;;;9.90;1.90;;;22.00;85.90;;;21.82;55.58;100394.47;5030206;28;20405;-75
2023/07/12 08:51:16;;;;;;;13.17;1.93;;;22.00;86.10;;;21.85;56.33;100394.00;5032203;28;20317;-78
2023/07/12 08:53:46;;;;;;;15.93;14.23;;;22.00;87.30;;;21.85;55.89;100396.72;5032729;28;20289;-76
2023/07/12 08:56:18;;;;;;;5.03;3.80;;;22.00;87.00;;;21.86;56.14;100390.19;5032483;28;20738;-75
2023/07/12 08:58:50;;;;;;;2.63;1.73;;;22.00;87.00;;;21.80;54.85;100396.63;5032225;28;20227;-75
2023/07/12 09:01:41;;;;;;;14.63;2.57;;;22.00;85.40;;;21.82;55.30;100406.19;5031796;28;20223;-76
2023/07/12 09:04:32;;;;;;;2.07;1.50;;;22.00;85.50;;;21.79;55.23;100408.56;5032168;28;20349;-77
2023/07/12 09:07:05;;;;;;;2.80;1.63;;;21.90;85.90;;;21.67;55.09;100419.53;5029203;28;20207;-75
2023/07/12 09:09:37;;;;;;;2.07;1.80;;;21.80;85.80;;;21.60;55.65;100414.22;5032028;28;20301;-75
2023/07/12 09:12:07;;;;;;;2.50;2.30;;;21.70;86.60;;;21.60;55.85;100416.94;5031920;28;20258;-75
2023/07/12 09:14:37;;;;;;;3.27;2.13;;;21.70;86.60;;;21.57;56.07;100411.13;5032267;28;20256;-75
2023/07/12 09:17:23;;;;;;;4.23;1.80;;;21.70;86.70;;;21.53;55.50;100413.50;5031749;28;20234;-76
2023/07/12 09:19:51;;;;;;;2.60;2.03;;;21.70;86.60;;;21.56;56.33;100413.03;5032038;28;20293;-75
2023/07/12 09:22:22;;;;;;;3.83;2.27;;;21.70;87.10;;;21.58;56.09;100416.31;5031148;28;20318;-75
2023/07/12 09:24:55;;;;;;;2.63;2.40;;;21.70;87.10;;;21.48;56.02;100410.66;5031668;28;20238;-76
2023/07/12 09:27:27;;;;;;;4.50;2.50;;;21.70;86.60;;;21.31;55.49;100420.63;5031981;28;20210;-75
2023/07/12 09:30:01;;;;;;;4.33;2.70;;;21.50;86.10;;;21.35;55.72;100419.09;5031841;28;20253;-75
2023/07/12 09:32:33;;;;;;;3.07;2.40;;;21.50;86.60;;;21.37;56.03;100414.22;5031134;28;20262;-76
2023/07/12 09:35:04;;;;;;;5.97;2.87;;;21.50;86.50;;;21.41;56.74;100412.69;5022089;28;20219;-75
2023/07/12 09:37:38;;;;;;;3.07;2.50;;;21.60;88.00;;;21.54;56.17;100422.50;5011376;28;20203;-75
2023/07/12 09:40:17;;;;;;;2.87;2.40;;;21.70;88.40;;;21.58;57.49;100416.31;5011588;28;20306;-76
2023/07/12 09:42:49;;;;;;;3.40;2.63;;;21.80;88.30;;;21.69;56.40;100415.47;5011405;28;20258;-76
2023/07/12 09:45:17;;;;;;;3.00;2.80;;;21.80;87.30;;;21.69;55.56;100409.19;5011670;28;20294;-75
2023/07/12 09:48:03;;;;;;;2.93;2.63;;;21.90;86.20;;;21.69;56.32;100412.75;5011970;28;20234;-76
2023/07/12 09:50:44;;;;;;;3.17;2.80;;;21.90;86.50;;;21.77;57.16;100397.09;5011981;28;20222;-75
2023/07/12 09:53:28;;;;;;;4.97;3.10;;;21.90;88.80;;;21.86;56.59;100401.09;5011590;28;20205;-75
2023/07/12 09:56:05;;;;;;;5.03;2.67;;;22.00;87.30;;;21.91;55.56;100399.34;5011607;28;20310;-77
2023/07/12 09:58:44;;;;;;;3.20;2.90;;;22.10;86.20;;;22.05;55.48;100395.25;5011232;28;20231;-75
2023/07/12 10:01:37;;;;;;;4.37;2.20;;;22.30;86.30;;;22.09;54.65;100395.59;5014510;28;20305;-76
2023/07/12 10:04:32;;;;;;;4.00;2.10;;;22.30;85.40;;;22.14;54.40;100404.69;5031054;28;20210;-76
2023/07/12 10:07:12;;;;;;;4.17;2.33;;;22.40;85.00;;;22.24;55.04;100395.88;5031231;28;20298;-75
2023/07/12 10:09:48;;;;;;;2.20;2.00;;;22.50;85.70;;;22.22;54.32;100400.75;5030723;28;20293;-76
2023/07/12 10:12:26;;;;;;;2.63;2.27;;;22.50;83.70;;;22.38;55.15;100405.41;5031217;28;20264;-75
2023/07/12 10:14:56;;;;;;;2.30;2.10;;;22.60;86.10;;;22.34;54.60;100401.50;5031156;28;20237;-76
2023/07/12 10:17:35;;;;;;;5.23;2.30;;;22.50;84.20;;;22.37;53.57;100397.44;5031137;28;20207;-76
2023/07/12 10:20:06;;;;;;;4.93;2.00;;;22.60;83.20;;;22.37;53.67;100395.56;5030678;28;20245;-75
2023/07/12 10:22:38;;;;;;;3.97;1.97;;;22.60;83.30;;;22.52;53.46;100404.03;5031098;28;20254;-76
2023/07/12 10:25:21;;;;;;;4.53;2.40;;;22.70;84.00;;;22.68;54.07;100410.59;5030693;28;20376;-76
2023/07/12 10:28:00;;;;;;;2.40;2.00;;;22.90;83.80;;;22.60;53.58;100408.25;5030944;28;20302;-75